Time;durP1;ratioP1;P1;durP2;ratioP2;P2;SDS_P1;SDS_P2;PMS_P1;PMS_P2;Temp;Humidity;BMP_temperature;BMP_pressure;BME280_temperature;BME280_humidity;BME280_pressure;Samples;Min_cycle;Max_cycle;Signal;HPM_P1;HPM_P2
2022/05/26 00:00:34;;;;;;;;;;;21.90;38.70;;;;;;5146911;27;20415;-50
2022/05/26 00:03:00;;;;;;;;;;;22.10;38.50;;;;;;5142271;27;20366;-48
2022/05/26 00:05:27;;;;;;;;;;;22.00;38.40;;;;;;5142367;27;19927;-47
2022/05/26 00:07:53;;;;;;;;;;;22.00;38.50;;;;;;5129584;27;19923;-50
2022/05/26 00:10:19;;;;;;;;;;;22.00;38.60;;;;;;5142571;27;19923;-48
2022/05/26 00:12:45;;;;;;;;;;;22.00;38.60;;;;;;5142303;27;20434;-51
2022/05/26 00:15:11;;;;;;;;;;;22.20;38.40;;;;;;5147496;27;20405;-49
2022/05/26 00:17:37;;;;;;;;;;;22.10;38.60;;;;;;5139865;27;19930;-47
2022/05/26 00:20:04;;;;;;;;;;;22.10;38.40;;;;;;5146729;27;20149;-48
2022/05/26 00:22:29;;;;;;;;;;;22.10;38.40;;;;;;5141658;27;19929;-47
2022/05/26 00:24:55;;;;;;;;;;;22.10;38.40;;;;;;5142256;27;19923;-48
2022/05/26 00:27:21;;;;;;;;;;;22.10;38.40;;;;;;5147545;27;19962;-48
2022/05/26 00:29:47;;;;;;;;;;;22.10;38.40;;;;;;5142313;27;19930;-46
2022/05/26 00:32:13;;;;;;;;;;;22.20;38.30;;;;;;5141764;27;19931;-46
2022/05/26 00:34:39;;;;;;;;;;;22.20;38.20;;;;;;5146345;27;19934;-49
2022/05/26 00:37:07;;;;;;;;;;;22.20;38.30;;;;;;5140626;27;20473;-48
2022/05/26 00:39:33;;;;;;;;;;;22.10;38.40;;;;;;5128523;27;20149;-46
2022/05/26 00:42:01;;;;;;;;;;;22.10;38.30;;;;;;5141656;27;19931;-47
2022/05/26 00:44:27;;;;;;;;;;;22.10;38.40;;;;;;5141909;27;20025;-46
2022/05/26 00:46:59;;;;;;;;;;;22.20;38.30;;;;;;5128675;27;19994;-45
2022/05/26 00:49:34;;;;;;;;;;;22.20;38.30;;;;;;5106916;27;19932;-46
2022/05/26 00:52:00;;;;;;;;;;;22.20;38.20;;;;;;5141643;27;19937;-50
2022/05/26 00:54:26;;;;;;;;;;;22.10;38.40;;;;;;5126364;27;20294;-47
2022/05/26 00:56:54;;;;;;;;;;;22.20;38.30;;;;;;5122159;27;19931;-46
2022/05/26 00:59:24;;;;;;;;;;;21.90;38.60;;;;;;5140713;27;20166;-47
2022/05/26 01:01:50;;;;;;;;;;;21.40;39.20;;;;;;5128529;27;19927;-47
2022/05/26 01:04:18;;;;;;;;;;;21.20;39.10;;;;;;5141437;27;19992;-45
2022/05/26 01:06:52;;;;;;;;;;;21.40;39.90;;;;;;5146705;27;20018;-52
2022/05/26 01:09:20;;;;;;;;;;;21.80;39.30;;;;;;5145608;27;19923;-45
2022/05/26 01:11:45;;;;;;;;;;;21.90;38.90;;;;;;5139831;27;19923;-45
2022/05/26 01:14:14;;;;;;;;;;;21.90;38.90;;;;;;5145513;27;19923;-46
2022/05/26 01:16:49;;;;;;;;;;;21.90;39.00;;;;;;5140928;27;19923;-46
2022/05/26 01:19:25;;;;;;;;;;;21.80;39.10;;;;;;5141279;27;20296;-46
2022/05/26 01:21:59;;;;;;;;;;;21.90;38.90;;;;;;5127987;27;19923;-45
2022/05/26 01:24:45;;;;;;;;;;;22.00;38.70;;;;;;5141558;27;20022;-47
2022/05/26 01:27:23;;;;;;;;;;;22.00;38.70;;;;;;5141155;27;19926;-47
2022/05/26 01:29:49;;;;;;;;;;;22.20;38.60;;;;;;5145518;27;20166;-46
2022/05/26 01:32:21;;;;;;;;;;;22.20;38.50;;;;;;5139695;27;19952;-47
2022/05/26 01:35:19;;;;;;;;;;;22.10;38.60;;;;;;5140495;27;20280;-48
2022/05/26 01:37:48;;;;;;;;;;;22.10;38.70;;;;;;5087513;27;19972;-50
2022/05/26 01:40:19;;;;;;;;;;;22.10;38.70;;;;;;5144387;27;20021;-47
2022/05/26 01:42:46;;;;;;;;;;;22.20;38.70;;;;;;5122829;27;19934;-46
2022/05/26 01:45:31;;;;;;;;;;;22.10;38.60;;;;;;5146463;27;19926;-47
2022/05/26 01:48:01;;;;;;;;;;;22.10;38.50;;;;;;5142754;27;19923;-49
2022/05/26 01:50:30;;;;;;;;;;;22.20;38.50;;;;;;5120875;27;20021;-48
2022/05/26 01:53:02;;;;;;;;;;;22.10;38.60;;;;;;5110361;27;19929;-50
2022/05/26 01:55:31;;;;;;;;;;;22.10;38.60;;;;;;5140569;27;19930;-45
2022/05/26 01:57:58;;;;;;;;;;;22.00;38.80;;;;;;5140796;27;20030;-46
2022/05/26 02:00:24;;;;;;;;;;;22.10;38.70;;;;;;5127832;27;19931;-47
2022/05/26 02:02:55;;;;;;;;;;;22.10;38.70;;;;;;5122342;27;20335;-49
2022/05/26 02:05:22;;;;;;;;;;;22.20;38.30;;;;;;5140758;27;20581;-47
2022/05/26 02:07:56;;;;;;;;;;;22.10;38.50;;;;;;5143881;27;20283;-46
2022/05/26 02:10:23;;;;;;;;;;;22.20;38.30;;;;;;5139839;27;19931;-45
2022/05/26 02:12:53;;;;;;;;;;;22.20;38.10;;;;;;5124631;27;19933;-46
2022/05/26 02:15:21;;;;;;;;;;;22.10;38.30;;;;;;5149896;27;19922;-47
2022/05/26 02:17:51;;;;;;;;;;;22.20;38.30;;;;;;5144410;27;19975;-51
2022/05/26 02:20:19;;;;;;;;;;;22.20;38.30;;;;;;5112194;27;19928;-53
2022/05/26 02:22:49;;;;;;;;;;;22.00;38.50;;;;;;5106511;27;20018;-50
2022/05/26 02:25:18;;;;;;;;;;;22.10;38.50;;;;;;5118144;27;19933;-47
2022/05/26 02:27:44;;;;;;;;;;;22.20;38.40;;;;;;5117281;27;20059;-49
2022/05/26 02:30:12;;;;;;;;;;;22.10;38.50;;;;;;5125000;27;20326;-47
2022/05/26 02:32:38;;;;;;;;;;;22.30;38.30;;;;;;5125264;27;19923;-48
2022/05/26 02:35:06;;;;;;;;;;;22.20;38.30;;;;;;5149321;27;19949;-47
2022/05/26 02:37:32;;;;;;;;;;;22.10;38.40;;;;;;5125506;27;20079;-45
2022/05/26 02:39:57;;;;;;;;;;;22.20;38.10;;;;;;5125217;27;20429;-46
2022/05/26 02:42:24;;;;;;;;;;;22.10;38.20;;;;;;5149107;27;20395;-45
2022/05/26 02:44:50;;;;;;;;;;;22.20;38.10;;;;;;5141806;27;20396;-44
2022/05/26 02:47:35;;;;;;;;;;;22.10;38.30;;;;;;5148441;27;20014;-44
2022/05/26 02:50:20;;;;;;;;;;;22.00;38.40;;;;;;5149083;27;20067;-43
2022/05/26 02:52:47;;;;;;;;;;;22.00;38.40;;;;;;5144007;27;20021;-44
2022/05/26 02:55:32;;;;;;;;;;;22.10;38.30;;;;;;5127605;27;20342;-55
2022/05/26 02:58:10;;;;;;;;;;;22.00;38.40;;;;;;5149065;27;19967;-44
2022/05/26 03:00:36;;;;;;;;;;;22.20;38.20;;;;;;5143398;27;19933;-50
2022/05/26 03:03:02;;;;;;;;;;;22.20;38.10;;;;;;5142257;27;19923;-53
2022/05/26 03:05:30;;;;;;;;;;;22.00;38.40;;;;;;5147830;27;19931;-47
2022/05/26 03:07:56;;;;;;;;;;;21.40;39.10;;;;;;5124718;27;19941;-49
2022/05/26 03:10:26;;;;;;;;;;;21.20;39.10;;;;;;5130587;27;20046;-46
2022/05/26 03:12:53;;;;;;;;;;;21.30;39.80;;;;;;5125054;27;20393;-48
2022/05/26 03:15:18;;;;;;;;;;;21.60;39.70;;;;;;5143200;27;20335;-46
2022/05/26 03:17:44;;;;;;;;;;;21.80;39.10;;;;;;5148339;27;19927;-46
2022/05/26 03:20:10;;;;;;;;;;;22.00;38.80;;;;;;5141817;27;19970;-45
2022/05/26 03:22:36;;;;;;;;;;;22.00;38.70;;;;;;5141191;27;19938;-48
2022/05/26 03:25:02;;;;;;;;;;;22.10;38.60;;;;;;5147887;27;20261;-47
2022/05/26 03:27:28;;;;;;;;;;;22.10;38.60;;;;;;5142962;27;19931;-47
2022/05/26 03:29:54;;;;;;;;;;;22.10;38.50;;;;;;5148554;27;19954;-45
2022/05/26 03:32:20;;;;;;;;;;;22.10;38.60;;;;;;5142986;27;19990;-46
2022/05/26 03:43:00;;;;;;;;;;;22.20;38.60;;;;;;5142201;27;20234;-44
2022/05/26 03:45:26;;;;;;;;;;;22.20;38.50;;;;;;5147834;27;19933;-55
2022/05/26 03:47:52;;;;;;;;;;;22.10;38.70;;;;;;5143827;27;19923;-46
2022/05/26 03:50:17;;;;;;;;;;;22.10;38.70;;;;;;5144999;27;19931;-47
2022/05/26 03:52:43;;;;;;;;;;;22.20;38.50;;;;;;5149210;27;20000;-45
2022/05/26 03:55:09;;;;;;;;;;;22.20;38.60;;;;;;5145258;27;19969;-45
2022/05/26 03:57:35;;;;;;;;;;;22.20;38.60;;;;;;5143939;27;20134;-44
2022/05/26 04:00:01;;;;;;;;;;;22.20;38.60;;;;;;5148164;27;19923;-46
2022/05/26 04:02:27;;;;;;;;;;;22.20;38.60;;;;;;5144820;27;20533;-43
2022/05/26 04:04:52;;;;;;;;;;;22.20;38.70;;;;;;5111097;27;20466;-52
2022/05/26 04:07:18;;;;;;;;;;;22.20;38.70;;;;;;5146864;27;19931;-44
2022/05/26 04:09:44;;;;;;;;;;;22.20;38.60;;;;;;5125921;27;19930;-44
2022/05/26 04:12:10;;;;;;;;;;;22.20;38.70;;;;;;5148179;27;20430;-48
2022/05/26 04:14:36;;;;;;;;;;;22.20;38.60;;;;;;5141823;27;19962;-44
2022/05/26 04:17:02;;;;;;;;;;;22.10;38.90;;;;;;5156331;27;20013;-44
2022/05/26 04:19:28;;;;;;;;;;;22.20;38.80;;;;;;5147194;27;19934;-46
2022/05/26 04:24:38;;;;;;;;;;;22.20;38.70;;;;;;5143392;27;20010;-46
2022/05/26 04:27:04;;;;;;;;;;;22.10;39.00;;;;;;5147818;27;20473;-44
2022/05/26 04:29:30;;;;;;;;;;;22.10;39.10;;;;;;5142355;27;19935;-47
2022/05/26 04:31:56;;;;;;;;;;;22.10;39.00;;;;;;5146219;27;20010;-54
2022/05/26 04:34:22;;;;;;;;;;;22.00;39.20;;;;;;5141977;27;19974;-48
2022/05/26 04:36:48;;;;;;;;;;;22.10;39.10;;;;;;5122431;27;20316;-45
2022/05/26 04:39:14;;;;;;;;;;;22.10;39.00;;;;;;5147589;27;19933;-44
2022/05/26 04:41:42;;;;;;;;;;;22.20;38.90;;;;;;5142686;27;20017;-47
2022/05/26 04:44:09;;;;;;;;;;;22.10;39.20;;;;;;5107151;27;19970;-46
2022/05/26 04:46:36;;;;;;;;;;;22.20;38.90;;;;;;5129226;27;19923;-46
2022/05/26 04:49:05;;;;;;;;;;;22.20;38.90;;;;;;5141556;27;20055;-46
2022/05/26 04:51:31;;;;;;;;;;;22.30;38.80;;;;;;5141743;27;19931;-47
2022/05/26 04:53:56;;;;;;;;;;;22.30;38.90;;;;;;5145418;27;19923;-46
2022/05/26 04:56:23;;;;;;;;;;;22.10;39.30;;;;;;5105472;27;19970;-47
2022/05/26 04:58:50;;;;;;;;;;;22.10;39.60;;;;;;5146996;27;20014;-47
2022/05/26 05:01:16;;;;;;;;;;;22.00;39.90;;;;;;5141663;27;19970;-46
2022/05/26 05:03:42;;;;;;;;;;;22.00;39.90;;;;;;5141640;27;20385;-47
2022/05/26 05:06:08;;;;;;;;;;;22.00;39.90;;;;;;5147344;27;19970;-46
2022/05/26 05:08:34;;;;;;;;;;;22.10;39.80;;;;;;5141523;27;19927;-48
2022/05/26 05:11:00;;;;;;;;;;;22.00;39.70;;;;;;5139828;27;19923;-46
2022/05/26 05:13:26;;;;;;;;;;;21.50;40.00;;;;;;5145792;27;19927;-48
2022/05/26 05:16:12;;;;;;;;;;;21.20;40.30;;;;;;5140949;27;20263;-47
2022/05/26 05:18:38;;;;;;;;;;;21.30;40.50;;;;;;5140971;27;19929;-46
2022/05/26 05:21:04;;;;;;;;;;;21.80;40.70;;;;;;5146881;27;19923;-49
2022/05/26 05:23:30;;;;;;;;;;;21.80;40.40;;;;;;5141857;27;20385;-49
2022/05/26 05:25:56;;;;;;;;;;;21.80;40.40;;;;;;5146561;27;19973;-48
2022/05/26 05:28:32;;;;;;;;;;;21.80;40.40;;;;;;5107920;27;20166;-50
2022/05/26 05:31:05;;;;;;;;;;;21.80;40.40;;;;;;5121051;27;19966;-49
2022/05/26 05:33:32;;;;;;;;;;;21.90;40.10;;;;;;5146227;27;20321;-48
2022/05/26 05:36:01;;;;;;;;;;;22.00;40.00;;;;;;5140824;27;19927;-48
2022/05/26 05:38:26;;;;;;;;;;;22.10;39.90;;;;;;5141154;27;20031;-50
2022/05/26 05:40:52;;;;;;;;;;;22.10;39.80;;;;;;5146409;27;20326;-49
2022/05/26 05:43:18;;;;;;;;;;;22.10;39.80;;;;;;5140618;27;19976;-50
2022/05/26 05:45:45;;;;;;;;;;;22.10;39.80;;;;;;5123454;27;20214;-49
2022/05/26 05:48:11;;;;;;;;;;;22.10;39.80;;;;;;5147792;27;20358;-51
2022/05/26 05:50:37;;;;;;;;;;;22.10;39.80;;;;;;5143597;27;19930;-48
2022/05/26 05:53:02;;;;;;;;;;;22.10;39.70;;;;;;5149526;27;19927;-50
2022/05/26 05:55:29;;;;;;;;;;;22.20;39.60;;;;;;5144751;27;20350;-49
2022/05/26 05:57:54;;;;;;;;;;;22.00;39.80;;;;;;5144670;27;19923;-48
2022/05/26 06:00:20;;;;;;;;;;;22.10;39.60;;;;;;5150123;27;19946;-47
2022/05/26 06:02:46;;;;;;;;;;;22.20;39.40;;;;;;5144263;27;19926;-48
2022/05/26 06:05:12;;;;;;;;;;;22.10;39.50;;;;;;5107135;27;19924;-50
2022/05/26 06:07:40;;;;;;;;;;;22.20;39.40;;;;;;5148272;27;20381;-47
2022/05/26 06:10:10;;;;;;;;;;;22.20;39.50;;;;;;5140096;27;19955;-51
2022/05/26 06:12:36;;;;;;;;;;;22.10;39.50;;;;;;5108309;27;20294;-56
2022/05/26 06:15:02;;;;;;;;;;;22.10;39.50;;;;;;5146854;27;19930;-47
2022/05/26 06:17:28;;;;;;;;;;;22.20;39.30;;;;;;5144481;27;19923;-50
2022/05/26 06:19:54;;;;;;;;;;;22.20;39.30;;;;;;5149781;27;20400;-47
2022/05/26 06:22:20;;;;;;;;;;;22.10;39.50;;;;;;5110325;27;19927;-48
2022/05/26 06:24:46;;;;;;;;;;;22.20;39.30;;;;;;5142014;27;19931;-50
2022/05/26 06:29:57;;;;;;;;;;;22.10;39.60;;;;;;5143527;27;19954;-45
2022/05/26 06:37:52;;;;;;;;;;;22.10;39.60;;;;;;5144309;27;20628;-47
2022/05/26 06:40:18;;;;;;;;;;;22.10;39.70;;;;;;5114006;27;19923;-46
2022/05/26 06:42:47;;;;;;;;;;;22.20;39.50;;;;;;5147548;27;20013;-45
2022/05/26 06:45:15;;;;;;;;;;;22.10;39.60;;;;;;5142452;27;20365;-46
2022/05/26 06:47:41;;;;;;;;;;;22.20;39.50;;;;;;5143618;27;20041;-45
2022/05/26 06:50:08;;;;;;;;;;;22.20;39.60;;;;;;5149219;27;20410;-45
2022/05/26 06:52:33;;;;;;;;;;;22.20;39.80;;;;;;5143669;27;19931;-46
2022/05/26 06:55:01;;;;;;;;;;;22.20;39.80;;;;;;5149364;27;20384;-45
2022/05/26 06:57:27;;;;;;;;;;;22.10;40.00;;;;;;5142924;27;19923;-46
2022/05/26 06:59:52;;;;;;;;;;;22.20;39.80;;;;;;5143367;27;19931;-47
2022/05/26 07:02:18;;;;;;;;;;;22.10;40.10;;;;;;5146738;27;19970;-45
2022/05/26 07:04:44;;;;;;;;;;;22.30;39.80;;;;;;5124856;27;19923;-46
2022/05/26 07:07:13;;;;;;;;;;;22.00;40.20;;;;;;5143687;27;19933;-49
2022/05/26 07:09:39;;;;;;;;;;;22.20;39.90;;;;;;5149187;27;19923;-45
2022/05/26 07:12:05;;;;;;;;;;;22.20;39.90;;;;;;5143972;27;19933;-44
2022/05/26 07:14:31;;;;;;;;;;;22.10;40.20;;;;;;5147212;27;20294;-55
2022/05/26 07:16:57;;;;;;;;;;;22.10;40.10;;;;;;5145001;27;20036;-44
2022/05/26 07:19:22;;;;;;;;;;;21.60;40.80;;;;;;5141553;27;19945;-45
2022/05/26 07:21:51;;;;;;;;;;;21.30;40.40;;;;;;5147311;27;19934;-45
2022/05/26 07:24:18;;;;;;;;;;;21.30;40.90;;;;;;5142819;27;19968;-44
2022/05/26 07:26:44;;;;;;;;;;;21.80;41.60;;;;;;5124796;27;19973;-45
2022/05/26 07:29:09;;;;;;;;;;;21.90;41.10;;;;;;5148508;27;19923;-44
2022/05/26 07:31:35;;;;;;;;;;;22.10;40.50;;;;;;5143061;27;19931;-43
2022/05/26 07:34:01;;;;;;;;;;;22.10;40.50;;;;;;5142901;27;19927;-48
2022/05/26 07:41:57;;;;;;;;;;;22.20;40.10;;;;;;5143463;27;20059;-45
2022/05/26 07:44:23;;;;;;;;;;;21.90;40.40;;;;;;5148160;27;20018;-49
2022/05/26 07:46:49;;;;;;;;;;;22.10;40.10;;;;;;5142884;27;20354;-45
2022/05/26 07:49:15;;;;;;;;;;;22.10;40.00;;;;;;5148619;27;19927;-47
2022/05/26 07:51:41;;;;;;;;;;;21.10;41.70;;;;;;5143445;27;20164;-45
2022/05/26 07:54:06;;;;;;;;;;;19.80;44.50;;;;;;5142904;27;19931;-46
2022/05/26 07:56:33;;;;;;;;;;;20.20;44.30;;;;;;5128189;27;19927;-45
2022/05/26 07:58:59;;;;;;;;;;;21.10;42.20;;;;;;5145495;27;19923;-44
2022/05/26 08:01:24;;;;;;;;;;;21.60;41.00;;;;;;5146772;27;20440;-45
2022/05/26 08:03:53;;;;;;;;;;;21.80;40.60;;;;;;5149422;27;19929;-46
2022/05/26 08:06:19;;;;;;;;;;;22.00;40.00;;;;;;5146544;27;19926;-44
2022/05/26 08:08:45;;;;;;;;;;;22.00;39.90;;;;;;5144442;27;19940;-51
2022/05/26 08:11:10;;;;;;;;;;;22.10;39.90;;;;;;5144889;27;19931;-47
2022/05/26 08:13:36;;;;;;;;;;;22.10;39.90;;;;;;5141828;27;19923;-45
2022/05/26 08:16:05;;;;;;;;;;;22.10;39.90;;;;;;5128183;27;20390;-44
2022/05/26 08:18:31;;;;;;;;;;;22.20;39.70;;;;;;5144598;27;19923;-43
2022/05/26 08:21:09;;;;;;;;;;;22.30;39.60;;;;;;5145444;27;19953;-44
2022/05/26 08:23:35;;;;;;;;;;;22.30;39.50;;;;;;5147871;27;19935;-45
2022/05/26 08:26:01;;;;;;;;;;;22.20;39.60;;;;;;5142212;27;19966;-47
2022/05/26 08:28:26;;;;;;;;;;;22.30;39.50;;;;;;5142353;27;20231;-49
2022/05/26 08:30:52;;;;;;;;;;;22.20;39.60;;;;;;5147548;27;19927;-46
2022/05/26 08:33:18;;;;;;;;;;;22.10;40.10;;;;;;5141730;27;19924;-45
2022/05/26 08:35:44;;;;;;;;;;;22.20;39.90;;;;;;5129632;27;19929;-49
2022/05/26 08:38:10;;;;;;;;;;;22.20;39.90;;;;;;5145326;27;19927;-43
2022/05/26 08:40:43;;;;;;;;;;;22.10;40.00;;;;;;5142416;27;19952;-48
2022/05/26 08:43:15;;;;;;;;;;;21.60;40.80;;;;;;5147732;27;20022;-46
2022/05/26 08:45:43;;;;;;;;;;;19.90;44.40;;;;;;5110498;27;19924;-45
2022/05/26 08:48:09;;;;;;;;;;;20.60;43.90;;;;;;5142676;27;19934;-46
2022/05/26 08:50:35;;;;;;;;;;;21.50;41.80;;;;;;5146280;27;19923;-48
2022/05/26 08:53:06;;;;;;;;;;;21.80;40.90;;;;;;5141111;27;20374;-44
2022/05/26 08:55:45;;;;;;;;;;;21.90;40.80;;;;;;5122976;27;20297;-46
2022/05/26 08:58:18;;;;;;;;;;;22.00;40.70;;;;;;5120733;27;19930;-46
2022/05/26 09:00:45;;;;;;;;;;;22.10;40.50;;;;;;5141315;27;19941;-45
2022/05/26 09:03:17;;;;;;;;;;;22.10;40.40;;;;;;5143933;27;20022;-45
2022/05/26 09:05:42;;;;;;;;;;;22.20;40.20;;;;;;5147450;27;20377;-47
2022/05/26 09:13:42;;;;;;;;;;;21.80;40.90;;;;;;5146789;27;19923;-47
2022/05/26 09:16:08;;;;;;;;;;;19.80;45.10;;;;;;5142399;27;19930;-47
2022/05/26 09:18:34;;;;;;;;;;;20.10;45.20;;;;;;5123721;27;19930;-50
2022/05/26 09:21:21;;;;;;;;;;;21.10;43.00;;;;;;5146652;27;19949;-48
2022/05/26 09:23:47;;;;;;;;;;;21.50;42.00;;;;;;5141190;27;19927;-52
2022/05/26 09:26:17;;;;;;;;;;;21.20;41.90;;;;;;5144227;27;19923;-54
2022/05/26 09:28:45;;;;;;;;;;;21.10;41.30;;;;;;5147454;27;19923;-45
2022/05/26 09:31:21;;;;;;;;;;;21.30;41.70;;;;;;5144881;27;19962;-49
2022/05/26 09:34:02;;;;;;;;;;;21.50;42.40;;;;;;5146290;27;20434;-48
2022/05/26 09:36:29;;;;;;;;;;;21.90;41.40;;;;;;5146690;27;20558;-50
2022/05/26 09:38:55;;;;;;;;;;;22.00;41.00;;;;;;5141243;27;20380;-46
2022/05/26 09:41:21;;;;;;;;;;;22.00;41.00;;;;;;5146463;27;19923;-46
2022/05/26 09:43:48;;;;;;;;;;;22.10;40.80;;;;;;5140778;27;19952;-47
2022/05/26 09:46:15;;;;;;;;;;;22.20;40.60;;;;;;5139672;27;19923;-49
2022/05/26 09:48:40;;;;;;;;;;;22.10;40.60;;;;;;5110287;27;20351;-48
2022/05/26 09:51:12;;;;;;;;;;;21.80;41.10;;;;;;5117898;27;19934;-48
2022/05/26 09:53:39;;;;;;;;;;;20.00;44.90;;;;;;5142118;27;19984;-47
2022/05/26 09:56:05;;;;;;;;;;;20.10;45.50;;;;;;5146513;27;19927;-51
2022/05/26 09:58:34;;;;;;;;;;;21.10;43.30;;;;;;5140885;27;19995;-50
2022/05/26 10:01:00;;;;;;;;;;;21.60;42.20;;;;;;5146493;27;20339;-51
2022/05/26 10:03:33;;;;;;;;;;;21.90;41.30;;;;;;5148015;27;19929;-46
2022/05/26 10:06:05;;;;;;;;;;;22.10;41.00;;;;;;5144387;27;19962;-48
2022/05/26 10:08:49;;;;;;;;;;;22.10;41.00;;;;;;5107743;27;19928;-47
2022/05/26 10:11:18;;;;;;;;;;;22.10;41.10;;;;;;5106835;27;20353;-48
2022/05/26 10:13:56;;;;;;;;;;;22.10;41.00;;;;;;5136867;27;19927;-47
2022/05/26 10:16:27;;;;;;;;;;;22.20;40.80;;;;;;5146072;27;19927;-47
2022/05/26 10:18:55;;;;;;;;;;;22.20;40.70;;;;;;5142557;27;19929;-47
2022/05/26 10:21:31;;;;;;;;;;;22.20;40.70;;;;;;5141488;27;19923;-52
2022/05/26 10:24:20;;;;;;;;;;;21.50;41.90;;;;;;5108728;27;19945;-49
2022/05/26 10:26:50;;;;;;;;;;;19.80;45.40;;;;;;5141878;27;20384;-49
2022/05/26 10:29:48;;;;;;;;;;;20.50;44.70;;;;;;5124075;27;20469;-46
2022/05/26 10:32:17;;;;;;;;;;;21.40;42.60;;;;;;5070642;27;19927;-46
2022/05/26 10:34:59;;;;;;;;;;;21.80;41.60;;;;;;5118251;27;19923;-46
2022/05/26 10:37:34;;;;;;;;;;;21.90;41.40;;;;;;5120522;27;20398;-46
2022/05/26 10:40:06;;;;;;;;;;;22.00;41.20;;;;;;5143816;27;20321;-47
2022/05/26 10:42:36;;;;;;;;;;;22.10;41.10;;;;;;5146972;27;19927;-48
2022/05/26 10:45:08;;;;;;;;;;;22.20;41.00;;;;;;5149269;27;20018;-47
2022/05/26 10:47:52;;;;;;;;;;;22.20;40.80;;;;;;5144089;27;20316;-54
2022/05/26 10:50:19;;;;;;;;;;;22.30;40.70;;;;;;5148607;27;23199;-50
2022/05/26 10:52:47;;;;;;;;;;;22.30;40.70;;;;;;5125194;27;20389;-51
2022/05/26 10:55:17;;;;;;;;;;;21.10;42.90;;;;;;5145621;27;20018;-57
2022/05/26 10:57:44;;;;;;;;;;;19.80;45.60;;;;;;5130255;27;19943;-49
2022/05/26 11:00:11;;;;;;;;;;;20.60;44.50;;;;;;5125607;27;19936;-47
2022/05/26 11:02:43;;;;;;;;;;;21.40;42.50;;;;;;5114318;27;19923;-46
2022/05/26 11:05:24;;;;;;;;;;;21.80;41.50;;;;;;5128284;27;19923;-46
2022/05/26 11:07:52;;;;;;;;;;;22.00;41.10;;;;;;5126009;27;19924;-49
2022/05/26 11:10:19;;;;;;;;;;;22.10;41.00;;;;;;5148691;27;19936;-51
2022/05/26 11:12:53;;;;;;;;;;;22.10;41.00;;;;;;5125194;27;19967;-48
2022/05/26 11:18:05;;;;;;;;;;;22.10;40.90;;;;;;5132072;27;20422;-46
2022/05/26 11:20:33;;;;;;;;;;;22.10;41.00;;;;;;5141735;27;19978;-48
2022/05/26 11:23:02;;;;;;;;;;;20.50;44.40;;;;;;5107931;27;19968;-45
2022/05/26 11:25:29;;;;;;;;;;;19.90;46.20;;;;;;5148763;27;19923;-47
2022/05/26 11:28:00;;;;;;;;;;;21.00;43.90;;;;;;5124579;27;19927;-49
2022/05/26 11:36:07;;;;;;;;;;;20.90;41.70;;;;;;5144586;27;20343;-47
2022/05/26 11:38:34;;;;;;;;;;;21.30;43.20;;;;;;5126706;27;20398;-47
2022/05/26 11:41:00;;;;;;;;;;;21.60;43.00;;;;;;5112520;27;19923;-47
2022/05/26 11:43:29;;;;;;;;;;;21.90;42.20;;;;;;5129213;27;20404;-47
2022/05/26 11:45:55;;;;;;;;;;;22.00;42.00;;;;;;5149772;27;19981;-47
2022/05/26 11:48:30;;;;;;;;;;;22.00;41.90;;;;;;5131657;27;20332;-48
2022/05/26 11:51:05;;;;;;;;;;;22.00;41.70;;;;;;5150402;27;20031;-46
2022/05/26 11:53:31;;;;;;;;;;;22.00;41.70;;;;;;5149928;27;20029;-46
2022/05/26 11:56:03;;;;;;;;;;;22.10;41.50;;;;;;5149793;27;19930;-46
2022/05/26 11:58:36;;;;;;;;;;;22.10;41.50;;;;;;5131649;27;20365;-45
2022/05/26 12:01:16;;;;;;;;;;;22.20;41.50;;;;;;5110832;27;19980;-50
2022/05/26 12:03:54;;;;;;;;;;;22.20;41.30;;;;;;5094020;27;19924;-45
2022/05/26 12:06:38;;;;;;;;;;;22.10;41.50;;;;;;5142837;27;19933;-48
2022/05/26 12:09:11;;;;;;;;;;;22.10;41.50;;;;;;5142633;27;20209;-47
2022/05/26 12:11:50;;;;;;;;;;;22.20;41.40;;;;;;5148028;27;19942;-47
2022/05/26 12:14:36;;;;;;;;;;;22.20;41.30;;;;;;5122106;27;20014;-46
2022/05/26 12:17:23;;;;;;;;;;;22.20;41.30;;;;;;5140948;27;20392;-50
2022/05/26 12:19:49;;;;;;;;;;;22.20;41.30;;;;;;5147377;27;19975;-49
2022/05/26 12:22:24;;;;;;;;;;;20.30;45.50;;;;;;5123687;27;20366;-46
2022/05/26 12:24:59;;;;;;;;;;;19.80;47.30;;;;;;5143517;27;20014;-47
2022/05/26 12:27:44;;;;;;;;;;;21.00;45.10;;;;;;5148326;27;19923;-50
2022/05/26 12:30:09;;;;;;;;;;;21.50;43.80;;;;;;5141860;27;19931;-48
2022/05/26 12:32:36;;;;;;;;;;;21.80;43.10;;;;;;5121835;27;19972;-46
2022/05/26 12:35:09;;;;;;;;;;;21.90;42.80;;;;;;5147730;27;19933;-48
2022/05/26 12:37:53;;;;;;;;;;;22.00;42.50;;;;;;5092029;27;20034;-46
2022/05/26 12:40:38;;;;;;;;;;;22.10;42.40;;;;;;5103113;27;20395;-50
2022/05/26 12:43:07;;;;;;;;;;;21.30;44.20;;;;;;5129151;27;19923;-54
2022/05/26 12:45:37;;;;;;;;;;;19.90;47.30;;;;;;5142882;27;19923;-47
2022/05/26 12:48:06;;;;;;;;;;;20.70;46.80;;;;;;5125716;27;19960;-46
2022/05/26 12:50:36;;;;;;;;;;;21.40;44.80;;;;;;5146364;27;19927;-50
2022/05/26 12:53:28;;;;;;;;;;;21.80;43.70;;;;;;5113829;27;20342;-51
2022/05/26 12:55:57;;;;;;;;;;;21.90;43.60;;;;;;5135771;27;20323;-49
2022/05/26 12:58:24;;;;;;;;;;;22.00;43.40;;;;;;5128848;27;20429;-50
2022/05/26 13:00:56;;;;;;;;;;;22.00;43.40;;;;;;5123152;27;20436;-49
2022/05/26 13:03:26;;;;;;;;;;;22.00;43.10;;;;;;5108808;27;20019;-48
2022/05/26 13:06:00;;;;;;;;;;;22.20;42.90;;;;;;5146913;27;19940;-53
2022/05/26 13:08:27;;;;;;;;;;;22.30;42.70;;;;;;5139896;27;20403;-53
2022/05/26 13:10:54;;;;;;;;;;;20.90;45.10;;;;;;5104812;27;20362;-49
2022/05/26 13:13:20;;;;;;;;;;;19.80;47.80;;;;;;5127916;27;20374;-48
2022/05/26 13:15:46;;;;;;;;;;;20.30;47.90;;;;;;5141455;27;19931;-48
2022/05/26 13:18:22;;;;;;;;;;;21.20;45.70;;;;;;5146878;27;19930;-51
2022/05/26 13:20:48;;;;;;;;;;;21.70;44.50;;;;;;5144120;27;19991;-49
2022/05/26 13:23:25;;;;;;;;;;;21.90;43.90;;;;;;5141921;27;19927;-47
2022/05/26 13:25:51;;;;;;;;;;;21.90;43.80;;;;;;5146594;27;19926;-48
2022/05/26 13:28:16;;;;;;;;;;;22.00;43.60;;;;;;5140392;27;20465;-51
2022/05/26 13:33:40;;;;;;;;;;;22.10;43.40;;;;;;5131418;27;20191;-47
2022/05/26 13:36:06;;;;;;;;;;;22.10;43.30;;;;;;5124026;27;20322;-52
2022/05/26 13:38:32;;;;;;;;;;;21.50;43.30;;;;;;5141995;27;20014;-53
2022/05/26 13:40:58;;;;;;;;;;;21.30;43.00;;;;;;5146983;27;20018;-49
2022/05/26 13:43:24;;;;;;;;;;;21.40;43.80;;;;;;5142558;27;19923;-48
2022/05/26 13:45:50;;;;;;;;;;;21.80;44.10;;;;;;5115413;27;20015;-51
2022/05/26 13:48:35;;;;;;;;;;;22.00;43.90;;;;;;5146001;27;19927;-47
2022/05/26 13:51:15;;;;;;;;;;;21.90;44.40;;;;;;5141557;27;19927;-47
2022/05/26 13:53:42;;;;;;;;;;;22.00;44.20;;;;;;5141973;27;20496;-49
2022/05/26 13:56:08;;;;;;;;;;;22.10;44.10;;;;;;5146672;27;19927;-49
2022/05/26 13:58:34;;;;;;;;;;;22.20;43.80;;;;;;5141770;27;20022;-47
2022/05/26 14:01:01;;;;;;;;;;;22.20;43.80;;;;;;5143429;27;20427;-57
2022/05/26 14:03:28;;;;;;;;;;;22.00;44.10;;;;;;5124754;27;20330;-51
2022/05/26 14:06:20;;;;;;;;;;;20.30;47.50;;;;;;5120873;27;20350;-45
2022/05/26 14:08:47;;;;;;;;;;;20.10;48.90;;;;;;5140045;27;19923;-56
2022/05/26 14:11:25;;;;;;;;;;;21.20;46.80;;;;;;5149088;27;20366;-47
2022/05/26 14:13:52;;;;;;;;;;;21.60;45.70;;;;;;5144337;27;19931;-51
2022/05/26 14:16:19;;;;;;;;;;;21.90;45.10;;;;;;5149944;27;19927;-47
2022/05/26 14:18:47;;;;;;;;;;;21.90;45.00;;;;;;5125775;27;19926;-49
2022/05/26 14:21:13;;;;;;;;;;;22.00;44.60;;;;;;5124668;27;20322;-48
2022/05/26 14:23:48;;;;;;;;;;;22.30;44.10;;;;;;5147780;27;19971;-50
2022/05/26 14:26:28;;;;;;;;;;;22.20;44.00;;;;;;5143760;27;19974;-51
2022/05/26 14:28:53;;;;;;;;;;;21.30;45.80;;;;;;5108019;27;19971;-50
2022/05/26 14:31:20;;;;;;;;;;;19.90;48.70;;;;;;5149528;27;19927;-48
2022/05/26 14:34:03;;;;;;;;;;;20.60;48.50;;;;;;5144323;27;19922;-49
2022/05/26 14:36:29;;;;;;;;;;;21.50;46.10;;;;;;5144001;27;20018;-48
2022/05/26 14:38:55;;;;;;;;;;;21.80;45.10;;;;;;5149142;27;20449;-49
2022/05/26 14:41:21;;;;;;;;;;;21.90;44.80;;;;;;5123519;27;19927;-46
2022/05/26 14:43:47;;;;;;;;;;;21.90;44.80;;;;;;5143317;27;20126;-49
2022/05/26 14:46:13;;;;;;;;;;;22.00;44.60;;;;;;5149106;27;19927;-48
2022/05/26 14:48:38;;;;;;;;;;;22.00;44.40;;;;;;5144009;27;19935;-49
2022/05/26 14:51:04;;;;;;;;;;;22.10;44.10;;;;;;5149379;27;19927;-47
2022/05/26 14:56:16;;;;;;;;;;;21.30;45.50;;;;;;5143470;27;20063;-49
2022/05/26 14:58:43;;;;;;;;;;;19.60;49.40;;;;;;5147237;27;20296;-46
2022/05/26 15:01:08;;;;;;;;;;;20.10;49.20;;;;;;5142186;27;20029;-48
2022/05/26 15:03:34;;;;;;;;;;;21.20;46.60;;;;;;5143055;27;20034;-48
2022/05/26 15:06:00;;;;;;;;;;;21.80;45.10;;;;;;5148851;27;19977;-48
2022/05/26 15:08:27;;;;;;;;;;;21.90;44.50;;;;;;5143783;27;19923;-48
2022/05/26 15:10:53;;;;;;;;;;;22.00;44.40;;;;;;5111265;27;20205;-48